Time;durP1;ratioP1;P1;durP2;ratioP2;P2;SDS_P1;SDS_P2;PMS_P1;PMS_P2;Temp;Humidity;BMP_temperature;BMP_pressure;BME280_temperature;BME280_humidity;BME280_pressure;Samples;Min_cycle;Max_cycle;Signal;HPM_P1;HPM_P2
2022/09/05 00:02:28;;;;;;;3.10;2.90;;;;;;;16.39;100.00;100597.59;4965693;28;20198;-77
2022/09/05 00:05:11;;;;;;;3.27;3.07;;;;;;;16.38;100.00;100593.25;4964197;28;20217;-78
2022/09/05 00:07:59;;;;;;;3.17;2.97;;;;;;;16.36;100.00;100595.06;4966683;28;20701;-78
2022/09/05 00:10:49;;;;;;;3.17;2.90;;;;;;;16.36;100.00;100602.03;4965116;28;20190;-77
2022/09/05 00:13:23;;;;;;;2.93;2.63;;;;;;;16.35;100.00;100595.09;4980998;28;20682;-76
2022/09/05 00:16:07;;;;;;;3.00;2.70;;;;;;;16.32;100.00;100593.41;4965333;28;20318;-75
2022/09/05 00:18:40;;;;;;;2.80;2.60;;;;;;;16.30;100.00;100592.59;4966287;28;20640;-77
2022/09/05 00:21:27;;;;;;;3.20;2.97;;;;;;;16.30;100.00;100595.22;4966723;28;20292;-78
2022/09/05 00:24:33;;;;;;;2.70;2.50;;;;;;;16.25;100.00;100599.72;4966230;28;20203;-77
2022/09/05 00:27:25;;;;;;;3.20;2.90;;;;;;;16.22;100.00;100592.81;4965390;28;20258;-74
2022/09/05 00:29:54;;;;;;;3.27;3.00;;;;;;;16.16;100.00;100593.00;4977542;28;20195;-76
2022/09/05 00:32:23;;;;;;;3.00;2.80;;;;;;;16.11;100.00;100585.28;4967433;28;20193;-76
2022/09/05 00:35:13;;;;;;;2.97;2.77;;;;;;;16.06;100.00;100594.13;4967259;28;20725;-78
2022/09/05 00:37:43;;;;;;;3.00;2.80;;;;;;;16.00;100.00;100582.09;4961707;28;20235;-77
2022/09/05 00:40:14;;;;;;;3.00;2.80;;;;;;;15.95;100.00;100573.56;4963410;28;20662;-77
2022/09/05 00:42:43;;;;;;;3.13;2.93;;;;;;;15.91;100.00;100567.53;4978006;28;20200;-76
2022/09/05 00:45:12;;;;;;;3.10;2.90;;;;;;;15.88;100.00;100572.00;4965295;28;20212;-76
2022/09/05 00:47:47;;;;;;;2.80;2.60;;;;;;;15.87;100.00;100572.88;4968487;28;20678;-76
2022/09/05 00:50:16;;;;;;;2.80;2.60;;;;;;;15.85;100.00;100567.72;4967292;28;20244;-77
2022/09/05 00:52:48;;;;;;;2.87;2.67;;;;;;;15.85;100.00;100579.00;4966574;28;20207;-77
2022/09/05 00:55:29;;;;;;;3.03;2.83;;;;;;;15.85;100.00;100581.63;4966701;28;20301;-76
2022/09/05 00:58:13;;;;;;;3.10;2.90;;;;;;;15.80;100.00;100580.88;4969099;28;20191;-76
2022/09/05 01:00:52;;;;;;;3.20;2.90;;;;;;;15.75;100.00;100572.28;4978204;28;20212;-76
2022/09/05 01:03:51;;;;;;;3.13;2.83;;;;;;;15.74;100.00;100577.53;4962768;28;20216;-76
2022/09/05 01:06:31;;;;;;;5.80;3.10;;;;;;;15.75;100.00;100569.69;4975951;28;20711;-76
2022/09/05 01:09:18;;;;;;;2.87;2.67;;;;;;;15.73;100.00;100574.06;4965882;28;20200;-76
2022/09/05 01:12:11;;;;;;;3.23;3.03;;;;;;;15.68;100.00;100570.72;4967280;28;20186;-78
2022/09/05 01:15:18;;;;;;;3.13;2.93;;;;;;;15.63;100.00;100564.78;4964890;28;20200;-75
2022/09/05 01:18:04;;;;;;;2.80;2.60;;;;;;;15.60;100.00;100572.69;4963153;28;20223;-76
2022/09/05 01:20:45;;;;;;;3.43;3.13;;;;;;;15.57;100.00;100567.53;4966790;28;20677;-78
2022/09/05 01:23:17;;;;;;;2.70;2.50;;;;;;;15.55;100.00;100575.41;4968128;28;20208;-77
2022/09/05 01:25:52;;;;;;;3.40;3.10;;;;;;;15.54;100.00;100568.47;4967175;28;20729;-77
2022/09/05 01:28:34;;;;;;;3.30;3.10;;;;;;;15.52;100.00;100565.03;4965083;28;20188;-75
2022/09/05 01:31:27;;;;;;;3.00;2.80;;;;;;;15.51;100.00;100574.59;4969404;28;20196;-76
2022/09/05 01:34:01;;;;;;;3.33;3.13;;;;;;;15.52;100.00;100578.94;4969026;28;20837;-77
2022/09/05 01:36:57;;;;;;;3.10;2.80;;;;;;;15.49;100.00;100580.78;4962419;28;20232;-76
2022/09/05 01:39:38;;;;;;;2.80;2.60;;;;;;;15.47;100.00;100578.22;4944446;28;20209;-75
2022/09/05 01:42:46;;;;;;;3.47;3.17;;;;;;;15.44;100.00;100572.19;4960761;28;20211;-75
2022/09/05 01:45:19;;;;;;;3.40;2.90;;;;;;;15.38;100.00;100574.06;4929672;28;20246;-74
2022/09/05 01:47:53;;;;;;;2.90;2.70;;;;;;;15.36;100.00;100581.06;4966098;28;20216;-75
2022/09/05 01:50:34;;;;;;;3.40;3.20;;;;;;;15.32;100.00;100576.81;4967510;28;20733;-78
2022/09/05 01:53:29;;;;;;;3.57;2.90;;;;;;;15.30;100.00;100577.75;4965324;28;20304;-78
2022/09/05 01:56:21;;;;;;;3.03;2.83;;;;;;;15.27;100.00;100572.63;4917067;28;20231;-79
2022/09/05 01:59:04;;;;;;;3.07;2.87;;;;;;;15.21;100.00;100576.22;4961977;28;20190;-78
2022/09/05 02:01:54;;;;;;;2.93;2.73;;;;;;;15.19;100.00;100567.59;4965099;28;21053;-77
2022/09/05 02:05:01;;;;;;;3.23;3.03;;;;;;;15.17;100.00;100580.66;4980018;28;20204;-77
2022/09/05 02:07:47;;;;;;;3.00;2.70;;;;;;;15.15;100.00;100573.75;4978093;28;20217;-76
2022/09/05 02:10:58;;;;;;;3.37;3.07;;;;;;;15.12;100.00;100579.06;4965371;28;20673;-77
2022/09/05 02:13:33;;;;;;;3.37;3.17;;;;;;;15.07;100.00;100582.63;4982326;28;20197;-76
2022/09/05 02:16:01;;;;;;;3.43;3.13;;;;;;;15.05;100.00;100586.16;4965522;28;20231;-77
2022/09/05 02:18:43;;;;;;;3.27;3.07;;;;;;;15.04;100.00;100587.06;4966346;28;20197;-76
2022/09/05 02:21:20;;;;;;;2.90;2.70;;;;;;;15.03;100.00;100585.34;4966594;28;20248;-76
2022/09/05 02:24:00;;;;;;;3.50;3.20;;;;;;;15.04;100.00;100590.50;4965661;28;20302;-77
2022/09/05 02:26:34;;;;;;;3.20;3.00;;;;;;;15.04;100.00;100590.50;4967005;28;20295;-77
2022/09/05 02:29:19;;;;;;;3.40;3.20;;;;;;;15.06;100.00;100593.06;4965466;28;20192;-75
2022/09/05 02:31:50;;;;;;;3.00;2.80;;;;;;;15.09;100.00;100593.00;4963122;28;20189;-76
2022/09/05 02:34:37;;;;;;;3.20;3.00;;;;;;;15.12;100.00;100589.50;4965190;28;20565;-77
2022/09/05 02:37:12;;;;;;;3.30;3.10;;;;;;;15.14;100.00;100593.75;4964169;28;20219;-77
2022/09/05 02:39:55;;;;;;;2.97;2.77;;;;;;;15.16;100.00;100602.41;4966928;28;20289;-76
2022/09/05 02:42:41;;;;;;;3.27;3.03;;;;;;;15.17;100.00;100585.00;4965363;28;20204;-76
2022/09/05 02:45:13;;;;;;;3.10;2.90;;;;;;;15.18;100.00;100590.19;4963957;28;20684;-77
2022/09/05 02:47:52;;;;;;;3.20;3.00;;;;;;;15.19;100.00;100586.69;4964096;28;20215;-76
2022/09/05 02:50:34;;;;;;;3.50;3.20;;;;;;;15.19;100.00;100586.69;4966050;28;20528;-77
2022/09/05 02:53:01;;;;;;;3.37;3.17;;;;;;;15.20;100.00;100587.53;4962042;28;20224;-76
2022/09/05 02:55:58;;;;;;;3.73;3.47;;;;;;;15.22;100.00;100586.59;4965347;28;20273;-76
2022/09/05 02:58:41;;;;;;;3.70;3.43;;;;;;;15.24;100.00;100586.59;4971317;28;20201;-76
2022/09/05 03:01:39;;;;;;;3.53;3.33;;;;;;;15.24;100.00;100579.59;4961608;28;20225;-77
2022/09/05 03:04:22;;;;;;;3.57;3.30;;;;;;;15.25;100.00;100590.91;4968246;28;20195;-75
2022/09/05 03:07:12;;;;;;;3.77;3.47;;;;;;;15.24;100.00;100590.03;4961802;28;20700;-76
2022/09/05 03:09:37;;;;;;;3.70;3.40;;;;;;;15.22;100.00;100586.59;4979863;28;20639;-76
2022/09/05 03:12:34;;;;;;;3.70;3.40;;;;;;;15.21;100.00;100578.84;4963717;28;20220;-78
2022/09/05 03:15:17;;;;;;;3.50;3.30;;;;;;;15.20;100.00;100582.34;4972135;28;20189;-76
2022/09/05 03:18:11;;;;;;;3.80;3.50;;;;;;;15.20;100.00;100575.34;4965070;28;20317;-76
2022/09/05 03:20:52;;;;;;;3.90;3.60;;;;;;;15.19;100.00;100581.50;4968650;28;20348;-76
2022/09/05 03:23:48;;;;;;;3.73;3.43;;;;;;;15.16;100.00;100591.97;4963376;28;20192;-77
2022/09/05 03:26:16;;;;;;;3.93;3.37;;;;;;;15.16;100.00;100585.91;4965170;28;20211;-76
2022/09/05 03:29:09;;;;;;;3.63;3.17;;;;;;;15.18;100.00;100582.38;4981210;28;20214;-76
2022/09/05 03:31:44;;;;;;;3.87;3.57;;;;;;;15.21;100.00;100576.22;4971047;28;20251;-75
2022/09/05 03:34:48;;;;;;;3.47;3.17;;;;;;;15.24;100.00;100576.16;4978309;28;20200;-76
2022/09/05 03:37:37;;;;;;;3.47;3.17;;;;;;;15.27;100.00;100580.44;4958124;28;20232;-77
2022/09/05 03:40:20;;;;;;;3.37;3.17;;;;;;;15.25;100.00;100577.88;4923642;28;20673;-76
2022/09/05 03:43:01;;;;;;;3.23;2.97;;;;;;;15.25;100.00;100583.09;4963043;28;20681;-77
2022/09/05 03:46:01;;;;;;;3.50;3.30;;;;;;;15.22;100.00;100578.78;4982898;28;20237;-78
2022/09/05 03:48:41;;;;;;;3.40;3.20;;;;;;;15.19;100.00;100581.50;4979401;28;20254;-76
2022/09/05 03:51:18;;;;;;;3.23;3.03;;;;;;;15.15;100.00;100581.56;4964296;28;20197;-77
2022/09/05 03:54:02;;;;;;;3.43;3.17;;;;;;;15.12;100.00;100574.69;4972749;28;20201;-78
2022/09/05 03:56:52;;;;;;;3.40;3.20;;;;;;;15.11;100.00;100577.34;4979576;28;20206;-76
2022/09/05 03:59:30;;;;;;;3.47;3.17;;;;;;;15.11;100.00;100577.34;4969338;28;20572;-76
2022/09/05 04:02:03;;;;;;;3.60;3.27;;;;;;;15.09;100.00;100583.44;4988780;28;20229;-76
2022/09/05 04:04:38;;;;;;;3.77;3.47;;;;;;;15.08;100.00;100586.06;4957701;28;20221;-76
2022/09/05 04:07:10;;;;;;;3.63;3.43;;;;;;;15.05;100.00;100581.78;4965937;28;20224;-78
2022/09/05 04:09:44;;;;;;;3.60;3.30;;;;;;;15.02;100.00;100578.41;4978495;28;20226;-76
2022/09/05 04:12:29;;;;;;;3.13;2.93;;;;;;;14.99;100.00;100581.91;4964143;28;20320;-77
2022/09/05 04:15:22;;;;;;;3.60;3.30;;;;;;;14.94;100.00;100589.84;4972409;28;20196;-76
2022/09/05 04:17:55;;;;;;;4.13;3.73;;;;;;;14.92;100.00;100578.59;4963667;28;20594;-76
2022/09/05 04:20:36;;;;;;;4.00;3.70;;;;;;;14.91;100.00;100582.09;4967011;28;20233;-76
2022/09/05 04:23:35;;;;;;;3.47;3.27;;;;;;;14.90;100.00;100585.59;4968170;28;20200;-77
2022/09/05 04:26:24;;;;;;;4.30;3.33;;;;;;;14.88;100.00;100590.00;4989287;28;20207;-76
2022/09/05 04:29:13;;;;;;;3.90;3.60;;;;;;;14.88;100.00;100584.78;4977006;28;20209;-75
2022/09/05 04:31:43;;;;;;;3.93;3.30;;;;;;;14.88;100.00;100591.72;4961451;28;20578;-76
2022/09/05 04:34:39;;;;;;;3.80;3.50;;;;;;;14.90;100.00;100593.41;4960774;28;21666;-75
2022/09/05 04:37:08;;;;;;;4.93;3.40;;;;;;;14.89;100.00;100596.94;4979020;28;20304;-78
2022/09/05 04:39:34;;;;;;;3.87;3.57;;;;;;;14.89;100.00;100596.06;4967003;28;20192;-77
2022/09/05 04:42:23;;;;;;;4.03;3.63;;;;;;;14.86;100.00;100597.00;4969289;28;20657;-75
2022/09/05 04:45:01;;;;;;;3.63;3.33;;;;;;;14.84;100.00;100592.69;4974836;28;20186;-77
2022/09/05 04:47:33;;;;;;;4.60;3.77;;;;;;;14.85;100.00;100597.00;4968768;28;20210;-77
2022/09/05 04:50:18;;;;;;;4.17;3.87;;;;;;;14.85;100.00;100597.00;4964799;28;20188;-76
2022/09/05 04:53:25;;;;;;;4.30;3.90;;;;;;;14.87;100.00;100611.75;4961075;28;20227;-76
2022/09/05 04:55:56;;;;;;;4.13;3.80;;;;;;;14.91;100.00;100620.34;4964353;28;20654;-77
2022/09/05 04:58:32;;;;;;;4.27;3.73;;;;;;;14.99;100.00;100622.78;4963385;28;20203;-76
2022/09/05 05:01:02;;;;;;;3.77;3.47;;;;;;;15.07;100.00;100618.25;4967150;28;20691;-78
2022/09/05 05:03:30;;;;;;;3.73;3.43;;;;;;;15.18;100.00;100624.09;4965466;28;20202;-78
2022/09/05 05:06:23;;;;;;;4.00;3.70;;;;;;;15.28;100.00;100631.69;4962170;28;20859;-76
2022/09/05 05:08:58;;;;;;;4.00;3.70;;;;;;;15.41;100.00;100637.50;4964401;28;20200;-77
2022/09/05 05:11:43;;;;;;;3.77;3.47;;;;;;;15.52;100.00;100638.09;4965513;28;20189;-79
2022/09/05 05:14:16;;;;;;;3.97;3.70;;;;;;;15.61;100.00;100640.47;4959645;28;20627;-78
2022/09/05 05:16:51;;;;;;;3.97;3.67;;;;;;;15.69;100.00;100635.94;4964915;28;20216;-79
2022/09/05 05:19:29;;;;;;;3.40;3.20;;;;;;;15.78;100.00;100654.84;4972249;28;20633;-79
2022/09/05 05:21:59;;;;;;;3.80;3.50;;;;;;;15.87;100.00;100648.56;4967035;28;20212;-77
2022/09/05 05:24:40;;;;;;;4.07;3.77;;;;;;;15.98;100.00;100643.94;4965919;28;20197;-79
2022/09/05 05:27:20;;;;;;;4.20;3.80;;;;;;;16.08;100.00;100650.66;4979842;28;20210;-80
2022/09/05 05:30:03;;;;;;;4.17;3.77;;;;;;;16.23;100.00;100654.59;4964164;28;20190;-78
2022/09/05 05:32:51;;;;;;;4.17;3.87;;;;;;;16.35;100.00;100652.53;4958136;28;20198;-76
2022/09/05 05:35:32;;;;;;;6.00;3.77;;;;;;;16.48;100.00;100658.28;4967704;28;20193;-78
2022/09/05 05:38:06;;;;;;;4.47;4.07;;;;;;;16.61;100.00;100660.53;4975024;28;20238;-77
2022/09/05 05:40:35;;;;;;;4.17;3.87;;;;;;;16.76;100.00;100664.47;4961902;28;20220;-77
2022/09/05 05:43:20;;;;;;;4.53;4.10;;;;;;;16.94;100.00;100664.00;4967650;28;20728;-77
2022/09/05 05:45:54;;;;;;;4.30;3.93;;;;;;;17.08;100.00;100658.34;4974902;28;20190;-78
2022/09/05 05:48:19;;;;;;;4.20;3.90;;;;;;;17.22;100.00;100669.25;4963148;28;20215;-77
2022/09/05 05:50:51;;;;;;;3.87;3.53;;;;;;;17.29;100.00;100670.78;4966858;28;20268;-77
2022/09/05 05:53:24;;;;;;;4.27;3.87;;;;;;;17.34;100.00;100666.25;4965122;28;20231;-78
2022/09/05 05:55:52;;;;;;;4.20;3.90;;;;;;;17.41;100.00;100671.31;4966661;28;20190;-76
2022/09/05 05:58:51;;;;;;;3.90;3.60;;;;;;;17.46;100.00;100669.41;4972958;28;20201;-76
2022/09/05 06:01:29;;;;;;;5.30;3.80;;;;;;;17.49;100.00;100679.75;4966653;28;20229;-79
2022/09/05 06:04:28;;;;;;;3.83;3.43;;;;;;;17.50;100.00;100684.09;4977386;28;20188;-78
2022/09/05 06:06:54;;;;;;;4.43;3.97;;;;;;;17.49;100.00;100688.47;4986691;28;20306;-76
2022/09/05 06:09:41;;;;;;;3.90;3.60;;;;;;;17.48;100.00;100683.28;4967012;28;20333;-77
2022/09/05 06:12:16;;;;;;;3.63;3.33;;;;;;;17.50;100.00;100682.34;4970876;28;20240;-76
2022/09/05 06:14:47;;;;;;;4.20;3.90;;;;;;;17.53;100.00;100686.63;4961227;28;20198;-77
2022/09/05 06:17:34;;;;;;;4.13;3.73;;;;;;;17.60;100.00;100689.91;4972035;28;20212;-76
2022/09/05 06:20:06;;;;;;;5.77;4.00;;;;;;;17.66;100.00;100689.72;4966633;28;20677;-78
2022/09/05 06:22:51;;;;;;;5.53;4.20;;;;;;;17.72;100.00;100684.25;4950798;28;20193;-77
2022/09/05 06:25:34;;;;;;;4.47;4.00;;;;;;;17.80;100.00;100678.78;4964673;28;20254;-77
2022/09/05 06:28:18;;;;;;;7.67;5.37;;;;;;;17.90;100.00;100677.59;4968774;28;20191;-77
2022/09/05 06:30:51;;;;;;;8.47;5.60;;;;;;;17.97;100.00;100684.34;4977484;28;20219;-75
2022/09/05 06:33:31;;;;;;;10.60;5.10;;;;;;;18.04;100.00;100682.38;4983042;28;20189;-78
2022/09/05 06:36:32;;;;;;;7.07;5.10;;;;;;;18.20;100.00;100684.47;4973476;28;20221;-77
2022/09/05 06:39:20;;;;;;;7.23;5.60;;;;;;;18.71;100.00;100680.03;4962050;28;20694;-76
2022/09/05 06:42:08;;;;;;;4.67;4.27;;;;;;;19.94;100.00;100679.69;4959103;28;20220;-79
2022/09/05 06:45:04;;;;;;;5.03;4.63;;;;;;;20.99;100.00;100676.03;4964953;28;20200;-77
2022/09/05 06:47:33;;;;;;;5.57;4.93;;;;;;;21.76;100.00;100677.66;4961508;28;20251;-78
2022/09/05 06:50:22;;;;;;;4.50;4.10;;;;;;;22.50;100.00;100688.00;4968795;28;20186;-78
2022/09/05 06:53:32;;;;;;;4.67;4.00;;;;;;;23.02;99.80;100689.63;4965685;28;20201;-76
2022/09/05 06:56:18;;;;;;;4.53;4.17;;;;;;;23.37;98.32;100681.53;4906268;29;20293;-76
2022/09/05 06:58:59;;;;;;;4.83;3.97;;;;;;;23.58;96.91;100689.19;4888896;29;20549;-77
2022/09/05 07:01:39;;;;;;;4.27;3.97;;;;;;;23.73;95.59;100690.13;4959184;28;20310;-78
2022/09/05 07:04:26;;;;;;;5.00;4.03;;;;;;;23.92;95.13;100692.53;4973447;28;20598;-77
2022/09/05 07:07:02;;;;;;;4.27;3.60;;;;;;;24.06;93.94;100686.44;4976296;28;20210;-76
2022/09/05 07:09:41;;;;;;;3.47;3.17;;;;;;;24.09;94.11;100693.34;4983411;28;20284;-76
2022/09/05 07:12:27;;;;;;;4.60;3.60;;;;;;;24.18;93.65;100693.66;4969635;28;20267;-75
2022/09/05 07:15:03;;;;;;;5.33;3.30;;;;;;;24.13;93.38;100697.50;4977336;28;20719;-77
2022/09/05 07:17:50;;;;;;;3.80;3.50;;;;;;;24.14;93.64;100692.13;4967894;28;20630;-75
2022/09/05 07:20:24;;;;;;;3.53;3.23;;;;;;;24.14;94.04;100694.78;4971155;28;20191;-76
2022/09/05 07:23:11;;;;;;;4.03;3.27;;;;;;;24.12;94.08;100703.75;4972521;28;20193;-77
2022/09/05 07:25:42;;;;;;;3.60;3.40;;;;;;;24.00;94.13;100706.16;4973192;28;20194;-76
2022/09/05 07:28:14;;;;;;;3.47;3.27;;;;;;;23.97;94.48;100706.38;4988146;28;20204;-76
2022/09/05 07:30:46;;;;;;;3.17;2.97;;;;;;;23.94;94.72;100709.16;4976096;28;20256;-76
2022/09/05 07:33:20;;;;;;;3.40;3.10;;;;;;;23.95;95.12;100707.34;4964931;28;20200;-77
2022/09/05 07:35:48;;;;;;;3.37;2.90;;;;;;;23.87;95.34;100707.78;4968373;28;20585;-78
2022/09/05 07:38:24;;;;;;;4.17;3.73;;;;;;;23.73;94.59;100712.09;4971396;28;20193;-78
2022/09/05 07:41:00;;;;;;;4.20;3.53;;;;;;;23.61;94.92;100710.16;4981699;28;20217;-75
2022/09/05 07:43:29;;;;;;;3.77;3.40;;;;;;;23.59;94.85;100704.97;4968906;28;20201;-76
2022/09/05 07:46:18;;;;;;;3.53;3.23;;;;;;;23.56;95.27;100704.28;4974592;28;20233;-76
2022/09/05 07:48:52;;;;;;;4.77;3.63;;;;;;;23.55;95.19;100710.50;4974267;28;20228;-76
2022/09/05 07:51:24;;;;;;;5.67;3.77;;;;;;;23.49;94.01;100695.00;4969115;28;20225;-76
2022/09/05 07:53:52;;;;;;;5.47;3.73;;;;;;;23.34;94.08;100702.00;4966601;28;20636;-76
2022/09/05 07:56:42;;;;;;;4.90;3.70;;;;;;;23.27;94.22;100715.56;4971007;28;20209;-77
2022/09/05 07:59:11;;;;;;;4.30;3.90;;;;;;;23.25;94.79;100698.09;4969770;28;20185;-76
2022/09/05 08:01:41;;;;;;;4.43;4.10;;;;;;;23.23;94.90;100700.81;4968418;28;20210;-76
2022/09/05 08:04:07;;;;;;;4.30;3.90;;;;;;;23.22;95.25;100704.41;4978372;28;20561;-75
2022/09/05 08:06:33;;;;;;;4.17;3.73;;;;;;;23.22;95.80;100703.53;4969711;28;20205;-77
2022/09/05 08:09:14;;;;;;;3.80;3.50;;;;;;;23.19;96.16;100706.31;4972644;28;20181;-78
2022/09/05 08:11:40;;;;;;;3.60;3.27;;;;;;;23.15;96.33;100697.69;4971195;28;20615;-76
2022/09/05 08:14:15;;;;;;;4.23;3.77;;;;;;;23.14;96.17;100699.50;4966424;28;20229;-77
2022/09/05 08:16:41;;;;;;;5.90;3.53;;;;;;;23.08;95.80;100702.47;4970774;28;20564;-75
2022/09/05 08:19:26;;;;;;;8.37;4.20;;;;;;;22.98;95.46;100698.63;4968229;28;20201;-76
2022/09/05 08:21:56;;;;;;;4.73;3.77;;;;;;;22.97;95.30;100697.81;4978790;28;20252;-76
2022/09/05 08:24:27;;;;;;;3.90;3.50;;;;;;;22.99;95.05;100705.63;4968942;28;20194;-76
2022/09/05 08:26:55;;;;;;;6.23;4.23;;;;;;;22.96;94.48;100704.03;4973903;28;20674;-75
2022/09/05 08:29:41;;;;;;;5.90;3.90;;;;;;;22.93;94.46;100703.31;4968215;28;20702;-76
2022/09/05 08:32:11;;;;;;;3.90;3.27;;;;;;;22.98;94.45;100709.19;4966923;28;20666;-77
2022/09/05 08:34:47;;;;;;;4.43;3.37;;;;;;;23.04;94.13;100703.59;4968485;28;20205;-76
2022/09/05 08:37:21;;;;;;;4.30;2.90;;;;;;;23.13;94.30;100707.53;4961089;28;20864;-76
2022/09/05 08:39:50;;;;;;;3.37;3.10;;;;;;;23.27;94.67;100707.63;4963937;28;20197;-76
2022/09/05 08:42:36;;;;;;;3.30;3.10;;;;;;;23.42;94.70;100715.63;4963711;28;20214;-76
2022/09/05 08:45:20;;;;;;;3.60;3.30;;;;;;;23.51;94.29;100711.63;4967017;28;20651;-75
2022/09/05 08:47:56;;;;;;;3.80;3.37;;;;;;;23.62;94.33;100722.44;4960849;28;20201;-77
2022/09/05 08:50:29;;;;;;;4.40;3.03;;;;;;;23.72;93.20;100722.75;4974769;28;20213;-75
2022/09/05 08:53:17;;;;;;;3.53;3.20;;;;;;;23.76;92.42;100721.63;4966743;28;20201;-75
2022/09/05 08:56:03;;;;;;;3.50;3.20;;;;;;;23.82;92.00;100718.63;4972917;28;20267;-77
2022/09/05 08:58:32;;;;;;;3.50;3.20;;;;;;;23.92;92.09;100718.97;4962980;28;20570;-77
2022/09/05 09:01:18;;;;;;;3.67;3.30;;;;;;;23.99;92.03;100711.56;4963656;28;20710;-75
2022/09/05 09:03:55;;;;;;;4.10;3.23;;;;;;;24.09;90.57;100717.16;4966305;28;20666;-76
2022/09/05 09:06:27;;;;;;;4.27;3.20;;;;;;;24.09;90.41;100718.00;4964314;28;20212;-78
2022/09/05 09:09:13;;;;;;;3.30;3.10;;;;;;;24.17;89.68;100715.75;4965229;28;20194;-76
2022/09/05 09:11:54;;;;;;;3.17;2.97;;;;;;;24.26;89.44;100719.66;4968049;28;20232;-77
2022/09/05 09:14:34;;;;;;;3.37;3.07;;;;;;;24.32;89.38;100711.31;4965414;28;20666;-77
2022/09/05 09:17:26;;;;;;;3.13;2.87;;;;;;;24.42;89.62;100713.44;4965243;28;20217;-76
2022/09/05 09:20:10;;;;;;;5.53;3.40;;;;;;;24.51;87.86;100707.56;4967823;28;20194;-76
2022/09/05 09:22:39;;;;;;;4.07;3.47;;;;;;;24.48;88.49;100699.81;4966757;28;20201;-79
2022/09/05 09:25:08;;;;;;;3.53;3.17;;;;;;;24.49;88.30;100707.69;4963713;28;20209;-76
2022/09/05 09:28:11;;;;;;;4.23;3.77;;;;;;;24.53;87.98;100703.03;4970083;28;20773;-77
2022/09/05 09:30:42;;;;;;;3.73;2.90;;;;;;;24.61;87.91;100692.00;4961557;28;20757;-77
2022/09/05 09:33:11;;;;;;;3.30;3.00;;;;;;;24.72;88.36;100694.84;4967338;28;20193;-75
2022/09/05 09:35:51;;;;;;;4.27;3.33;;;;;;;24.84;87.81;100695.00;4967055;28;20190;-75
2022/09/05 09:38:29;;;;;;;3.80;3.50;;;;;;;24.87;87.65;100695.69;4981765;28;20197;-77
2022/09/05 09:41:07;;;;;;;4.23;3.37;;;;;;;24.92;87.24;100687.47;4968256;28;20301;-75
2022/09/05 09:43:58;;;;;;;4.23;3.47;;;;;;;24.91;86.78;100680.47;4981199;28;20193;-75
2022/09/05 09:46:46;;;;;;;3.90;2.80;;;;;;;24.92;86.64;100677.72;4921890;28;20257;-75
2022/09/05 09:49:14;;;;;;;3.20;2.90;;;;;;;25.01;86.64;100672.78;4963349;28;20638;-78
2022/09/05 09:51:55;;;;;;;3.30;3.00;;;;;;;25.09;86.25;100666.06;4966445;28;20240;-75
2022/09/05 09:54:39;;;;;;;3.27;2.97;;;;;;;25.17;85.81;100668.22;4966652;28;20192;-77
2022/09/05 09:57:13;;;;;;;3.50;3.20;;;;;;;25.27;85.54;100658.72;4967408;28;20213;-76
2022/09/05 10:00:22;;;;;;;3.17;2.87;;;;;;;25.32;85.45;100654.91;4965893;28;20581;-80
2022/09/05 10:03:02;;;;;;;3.10;2.90;;;;;;;25.41;85.59;100656.97;4911432;29;20200;-76
2022/09/05 10:06:02;;;;;;;3.50;3.17;;;;;;;25.53;84.65;100655.34;4966154;28;20699;-76
2022/09/05 10:08:42;;;;;;;3.10;2.80;;;;;;;25.66;84.50;100660.66;4948232;28;20654;-76
2022/09/05 10:11:37;;;;;;;2.83;2.63;;;;;;;25.65;84.08;100657.16;4975278;28;20192;-76
2022/09/05 10:14:40;;;;;;;3.27;2.80;;;;;;;25.74;83.36;100650.41;4965446;28;20196;-78
2022/09/05 10:17:17;;;;;;;2.63;2.43;;;;;;;25.80;82.89;100652.63;4966886;28;20305;-77
2022/09/05 10:19:52;;;;;;;3.00;2.77;;;;;;;25.82;82.77;100641.94;4973230;28;20180;-76
2022/09/05 10:22:31;;;;;;;2.70;2.50;;;;;;;25.87;82.82;100632.72;4977982;28;20212;-77
2022/09/05 10:25:06;;;;;;;2.77;2.57;;;;;;;25.96;82.76;100633.88;4970986;28;20197;-75
2022/09/05 10:27:56;;;;;;;2.63;2.43;;;;;;;26.03;81.64;100629.00;4974454;28;20209;-78
2022/09/05 10:30:31;;;;;;;2.47;2.27;;;;;;;26.12;81.79;100635.50;4978186;28;20193;-78
2022/09/05 10:33:14;;;;;;;2.80;2.60;;;;;;;26.22;81.47;100630.41;4976945;28;20204;-76
2022/09/05 10:35:43;;;;;;;2.53;2.33;;;;;;;26.26;81.90;100627.44;4979286;28;20189;-77
2022/09/05 10:38:15;;;;;;;3.27;2.77;;;;;;;26.38;82.07;100620.44;4965754;28;20190;-75
2022/09/05 10:40:47;;;;;;;3.77;2.83;;;;;;;26.41;81.34;100612.22;4963614;28;20210;-76
2022/09/05 10:43:16;;;;;;;3.03;2.73;;;;;;;26.44;80.59;100613.84;4975597;28;20220;-77
2022/09/05 10:45:48;;;;;;;2.87;2.67;;;;;;;26.50;80.50;100612.56;4971391;28;20656;-76
2022/09/05 10:48:45;;;;;;;3.17;2.90;;;;;;;26.52;80.32;100616.78;4970802;28;20197;-75
2022/09/05 10:51:33;;;;;;;2.60;2.40;;;;;;;26.58;79.75;100612.84;4968172;28;20285;-77
2022/09/05 10:54:28;;;;;;;2.60;2.40;;;;;;;26.71;79.62;100615.47;4966235;28;20193;-79
2022/09/05 10:57:30;;;;;;;2.60;2.50;;;;;;;26.74;78.46;100609.94;4946526;28;20225;-75
2022/09/05 11:00:14;;;;;;;2.60;2.40;;;;;;;26.75;79.28;100609.81;4964742;28;20610;-78
2022/09/05 11:02:41;;;;;;;2.70;2.50;;;;;;;26.83;78.79;100608.47;4969978;28;20186;-76
2022/09/05 11:05:14;;;;;;;3.63;2.87;;;;;;;26.86;78.45;100602.91;4972690;28;20614;-75
2022/09/05 11:07:54;;;;;;;2.80;2.60;;;;;;;26.93;78.99;100597.03;4974592;28;20210;-76
2022/09/05 11:10:34;;;;;;;3.03;2.50;;;;;;;27.00;78.62;100597.44;4960821;28;20662;-78
2022/09/05 11:13:28;;;;;;;5.13;2.73;;;;;;;27.04;76.82;100590.94;4966695;28;20193;-76
2022/09/05 11:15:56;;;;;;;3.23;2.57;;;;;;;27.01;77.53;100593.81;4985853;28;20214;-77
2022/09/05 11:18:40;;;;;;;3.50;3.00;;;;;;;27.10;76.26;100586.16;4971877;28;20193;-80
2022/09/05 11:21:22;;;;;;;2.93;2.73;;;;;;;27.05;77.19;100587.31;4971283;28;20703;-77
2022/09/05 11:23:55;;;;;;;2.50;2.30;;;;;;;27.20;77.32;100588.00;4971400;28;20197;-76
2022/09/05 11:26:36;;;;;;;2.80;2.60;;;;;;;27.18;76.90;100589.94;4977716;28;21026;-77
2022/09/05 11:29:10;;;;;;;3.00;2.80;;;;;;;27.27;77.67;100580.44;4973854;28;20295;-77
2022/09/05 11:31:50;;;;;;;2.60;2.40;;;;;;;27.31;77.80;100571.25;4975727;28;20196;-77
2022/09/05 11:34:31;;;;;;;2.80;2.60;;;;;;;27.37;77.35;100575.28;4969199;28;20193;-77
2022/09/05 11:37:00;;;;;;;2.87;2.60;;;;;;;27.45;77.17;100580.00;4983086;28;20216;-76
2022/09/05 11:39:51;;;;;;;3.20;2.90;;;;;;;27.58;76.28;100575.47;4967356;28;20193;-76
2022/09/05 11:42:47;;;;;;;3.00;2.80;;;;;;;27.60;74.86;100575.34;4973440;28;20213;-76
2022/09/05 11:45:35;;;;;;;2.80;2.60;;;;;;;27.53;75.65;100567.00;4966262;28;20212;-77
2022/09/05 11:48:35;;;;;;;2.50;2.30;;;;;;;27.53;76.36;100559.03;4967232;28;20189;-76
2022/09/05 11:51:19;;;;;;;2.80;2.60;;;;;;;27.59;76.79;100566.53;4969503;28;20598;-75
2022/09/05 11:53:53;;;;;;;2.50;2.30;;;;;;;27.60;76.97;100557.59;4966530;28;20737;-77
2022/09/05 11:56:45;;;;;;;2.67;2.47;;;;;;;27.60;76.50;100557.59;4967469;28;20777;-76
2022/09/05 11:59:40;;;;;;;3.33;2.60;;;;;;;27.67;76.34;100552.66;4984771;28;20677;-77
2022/09/05 12:02:40;;;;;;;2.97;2.77;;;;;;;27.72;76.76;100549.66;4971803;28;20230;-78
2022/09/05 12:05:29;;;;;;;3.20;2.47;;;;;;;27.80;76.73;100553.41;4980730;28;20216;-76
2022/09/05 12:08:04;;;;;;;2.90;2.70;;;;;;;27.85;76.98;100545.06;4966481;28;20206;-76
2022/09/05 12:10:50;;;;;;;2.57;2.40;;;;;;;27.93;76.10;100542.63;4977271;28;20301;-76
2022/09/05 12:13:24;;;;;;;3.13;2.80;;;;;;;27.94;74.01;100538.19;4967431;28;20333;-75
2022/09/05 12:15:51;;;;;;;3.30;2.63;;;;;;;27.84;73.63;100533.56;4966721;28;20193;-77
2022/09/05 12:18:32;;;;;;;3.03;2.67;;;;;;;27.86;74.35;100524.63;4966355;28;20709;-77
2022/09/05 12:21:19;;;;;;;4.13;2.63;;;;;;;27.92;72.60;100517.00;4974322;28;20280;-76
2022/09/05 12:24:17;;;;;;;2.77;2.50;;;;;;;27.87;73.44;100519.19;4978304;28;20197;-78
2022/09/05 12:26:53;;;;;;;2.40;2.20;;;;;;;27.88;73.81;100514.72;4963401;28;20702;-77